sensor_id;sensor_type;location;lat;lon;timestamp;pressure;altitude;pressure_sealevel;temperature;humidity
3254;BME280;1639;42.804;23.342;2022-11-20T00:00:50;71913.50;;;-148.52;100.00
3254;BME280;1639;42.804;23.342;2022-11-20T00:03:16;71907.31;;;-148.52;100.00
3254;BME280;1639;42.804;23.342;2022-11-20T00:05:42;71903.16;;;-148.52;100.00
3254;BME280;1639;42.804;23.342;2022-11-20T00:08:08;71896.97;;;-148.52;100.00
3254;BME280;1639;42.804;23.342;2022-11-20T00:10:36;71896.97;;;-148.52;100.00
3254;BME280;1639;42.804;23.342;2022-11-20T00:13:02;71899.03;;;-148.52;100.00
3254;BME280;1639;42.804;23.342;2022-11-20T00:15:28;71886.63;;;-148.52;100.00
3254;BME280;1639;42.804;23.342;2022-11-20T00:17:53;71892.81;;;-148.52;100.00
3254;BME280;1639;42.804;23.342;2022-11-20T00:20:19;71874.22;;;-148.52;100.00
3254;BME280;1639;42.804;23.342;2022-11-20T00:22:44;71868.00;;;-148.52;100.00
3254;BME280;1639;42.804;23.342;2022-11-20T00:25:10;71870.09;;;-148.52;100.00
3254;BME280;1639;42.804;23.342;2022-11-20T00:27:36;71855.59;;;-148.52;100.00
3254;BME280;1639;42.804;23.342;2022-11-20T00:30:02;71880.41;;;-148.52;100.00
3254;BME280;1639;42.804;23.342;2022-11-20T00:32:29;71876.28;;;-148.52;100.00
3254;BME280;1639;42.804;23.342;2022-11-20T00:34:54;71878.34;;;-148.52;100.00
3254;BME280;1639;42.804;23.342;2022-11-20T00:37:19;71892.81;;;-148.52;100.00
3254;BME280;1639;42.804;23.342;2022-11-20T00:39:45;71909.38;;;-148.52;100.00
3254;BME280;1639;42.804;23.342;2022-11-20T00:42:10;71925.91;;;-148.52;100.00
3254;BME280;1639;42.804;23.342;2022-11-20T00:44:36;71952.78;;;-148.52;100.00
3254;BME280;1639;42.804;23.342;2022-11-20T00:47:01;71956.94;;;-148.52;100.00
3254;BME280;1639;42.804;23.342;2022-11-20T00:49:26;71965.19;;;-148.52;100.00
3254;BME280;1639;42.804;23.342;2022-11-20T00:51:52;71967.25;;;-148.52;100.00
3254;BME280;1639;42.804;23.342;2022-11-20T00:54:17;71965.19;;;-148.52;100.00
3254;BME280;1639;42.804;23.342;2022-11-20T00:56:43;71956.94;;;-148.52;100.00
3254;BME280;1639;42.804;23.342;2022-11-20T00:59:08;71942.44;;;-148.52;100.00
3254;BME280;1639;42.804;23.342;2022-11-20T01:01:35;71934.19;;;-148.52;100.00
3254;BME280;1639;42.804;23.342;2022-11-20T01:04:01;71925.91;;;-148.52;100.00
3254;BME280;1639;42.804;23.342;2022-11-20T01:06:32;71925.91;;;-148.52;100.00
3254;BME280;1639;42.804;23.342;2022-11-20T01:09:00;71905.22;;;-148.52;100.00
3254;BME280;1639;42.804;23.342;2022-11-20T01:11:31;71905.22;;;-148.52;100.00
3254;BME280;1639;42.804;23.342;2022-11-20T01:13:58;71901.09;;;-148.52;100.00
3254;BME280;1639;42.804;23.342;2022-11-20T01:16:26;71911.44;;;-148.52;100.00
3254;BME280;1639;42.804;23.342;2022-11-20T01:18:54;71913.50;;;-148.52;100.00
3254;BME280;1639;42.804;23.342;2022-11-20T01:21:40;71913.50;;;-148.52;100.00
3254;BME280;1639;42.804;23.342;2022-11-20T01:24:08;71921.78;;;-148.52;100.00
3254;BME280;1639;42.804;23.342;2022-11-20T01:26:36;71923.84;;;-148.52;100.00
3254;BME280;1639;42.804;23.342;2022-11-20T01:29:03;71938.31;;;-148.52;100.00
3254;BME280;1639;42.804;23.342;2022-11-20T01:31:31;71936.25;;;-148.52;100.00
3254;BME280;1639;42.804;23.342;2022-11-20T01:33:59;71925.91;;;-148.52;100.00
3254;BME280;1639;42.804;23.342;2022-11-20T01:36:28;71907.31;;;-148.52;100.00
3254;BME280;1639;42.804;23.342;2022-11-20T01:38:56;71888.69;;;-148.52;100.00
3254;BME280;1639;42.804;23.342;2022-11-20T01:41:23;71894.91;;;-148.52;100.00
3254;BME280;1639;42.804;23.342;2022-11-20T01:44:10;71890.75;;;-148.52;100.00
3254;BME280;1639;42.804;23.342;2022-11-20T01:46:38;71882.50;;;-148.52;100.00
3254;BME280;1639;42.804;23.342;2022-11-20T01:49:11;71870.09;;;-148.52;100.00
3254;BME280;1639;42.804;23.342;2022-11-20T01:51:45;71874.22;;;-148.52;100.00
3254;BME280;1639;42.804;23.342;2022-11-20T01:54:20;71865.94;;;-148.52;100.00
3254;BME280;1639;42.804;23.342;2022-11-20T01:56:51;71859.75;;;-148.52;100.00
3254;BME280;1639;42.804;23.342;2022-11-20T01:59:19;71859.75;;;-148.52;100.00
3254;BME280;1639;42.804;23.342;2022-11-20T02:01:45;71855.59;;;-148.52;100.00
3254;BME280;1639;42.804;23.342;2022-11-20T02:04:12;71839.06;;;-148.52;100.00
3254;BME280;1639;42.804;23.342;2022-11-20T02:06:48;71847.34;;;-148.52;100.00
3254;BME280;1639;42.804;23.342;2022-11-20T02:09:15;71843.19;;;-148.52;100.00
3254;BME280;1639;42.804;23.342;2022-11-20T02:11:41;71837.00;;;-148.52;100.00
3254;BME280;1639;42.804;23.342;2022-11-20T02:14:07;71845.28;;;-148.52;100.00
3254;BME280;1639;42.804;23.342;2022-11-20T02:16:53;71837.00;;;-148.52;100.00
3254;BME280;1639;42.804;23.342;2022-11-20T02:21:49;71837.00;;;-148.52;100.00
3254;BME280;1639;42.804;23.342;2022-11-20T02:24:19;71830.81;;;-148.52;100.00
3254;BME280;1639;42.804;23.342;2022-11-20T02:29:33;71822.53;;;-148.52;76.72
3254;BME280;1639;42.804;23.342;2022-11-20T02:32:01;71816.31;;;-148.52;72.63
3254;BME280;1639;42.804;23.342;2022-11-20T02:34:28;71822.53;;;-148.52;71.40
3254;BME280;1639;42.804;23.342;2022-11-20T02:36:54;71814.25;;;-148.52;71.33
3254;BME280;1639;42.804;23.342;2022-11-20T02:39:21;71832.88;;;-148.52;71.24
3254;BME280;1639;42.804;23.342;2022-11-20T02:41:48;71834.94;;;-148.52;71.85
3254;BME280;1639;42.804;23.342;2022-11-20T02:44:13;71839.06;;;-148.52;72.02
3254;BME280;1639;42.804;23.342;2022-11-20T02:46:39;71839.06;;;-148.52;71.48
3254;BME280;1639;42.804;23.342;2022-11-20T02:49:05;71851.47;;;-148.52;71.35
3254;BME280;1639;42.804;23.342;2022-11-20T02:51:31;71845.28;;;-148.52;70.07
3254;BME280;1639;42.804;23.342;2022-11-20T02:53:57;71841.13;;;-148.52;69.40
3254;BME280;1639;42.804;23.342;2022-11-20T02:56:23;71837.00;;;-148.52;69.36
3254;BME280;1639;42.804;23.342;2022-11-20T02:58:49;71834.94;;;-148.52;69.05
3254;BME280;1639;42.804;23.342;2022-11-20T03:01:14;71826.66;;;-148.52;69.25
3254;BME280;1639;42.804;23.342;2022-11-20T03:03:40;71839.06;;;-148.52;69.44
3254;BME280;1639;42.804;23.342;2022-11-20T03:06:05;71834.94;;;-148.52;68.52
3254;BME280;1639;42.804;23.342;2022-11-20T03:08:31;71832.88;;;-148.52;68.99
3254;BME280;1639;42.804;23.342;2022-11-20T03:10:56;71841.13;;;-148.52;68.45
3254;BME280;1639;42.804;23.342;2022-11-20T03:13:22;71834.94;;;-148.52;68.84
3254;BME280;1639;42.804;23.342;2022-11-20T03:15:47;71843.19;;;-148.52;68.80
3254;BME280;1639;42.804;23.342;2022-11-20T03:18:12;71841.13;;;-148.52;68.90
3254;BME280;1639;42.804;23.342;2022-11-20T03:20:39;71839.06;;;-148.52;69.03
3254;BME280;1639;42.804;23.342;2022-11-20T03:23:04;71839.06;;;-148.52;69.36
3254;BME280;1639;42.804;23.342;2022-11-20T03:25:29;71845.28;;;-148.52;69.71
3254;BME280;1639;42.804;23.342;2022-11-20T03:27:55;71845.28;;;-148.52;69.77
3254;BME280;1639;42.804;23.342;2022-11-20T03:30:21;71853.53;;;-148.52;67.91
3254;BME280;1639;42.804;23.342;2022-11-20T03:32:47;71859.75;;;-148.52;66.29
3254;BME280;1639;42.804;23.342;2022-11-20T03:35:12;71863.88;;;-148.52;64.64
3254;BME280;1639;42.804;23.342;2022-11-20T03:37:38;71863.88;;;-148.52;64.70
3254;BME280;1639;42.804;23.342;2022-11-20T03:40:04;71870.09;;;-148.52;64.51
3254;BME280;1639;42.804;23.342;2022-11-20T03:42:29;71876.28;;;-148.52;64.75
3254;BME280;1639;42.804;23.342;2022-11-20T03:45:10;71880.41;;;-148.52;64.55
3254;BME280;1639;42.804;23.342;2022-11-20T03:47:36;71876.28;;;-148.52;64.81
3254;BME280;1639;42.804;23.342;2022-11-20T03:50:02;71863.88;;;-148.52;65.35
3254;BME280;1639;42.804;23.342;2022-11-20T03:52:27;71859.75;;;-148.52;64.81
3254;BME280;1639;42.804;23.342;2022-11-20T03:54:52;71855.59;;;-148.52;64.22
3254;BME280;1639;42.804;23.342;2022-11-20T03:57:18;71863.88;;;-148.52;64.79
3254;BME280;1639;42.804;23.342;2022-11-20T03:59:43;71843.19;;;-148.52;65.20
3254;BME280;1639;42.804;23.342;2022-11-20T04:02:09;71845.28;;;-148.52;65.62
3254;BME280;1639;42.804;23.342;2022-11-20T04:04:34;71843.19;;;-148.52;64.53
3254;BME280;1639;42.804;23.342;2022-11-20T04:07:00;71843.19;;;-148.52;63.47
3254;BME280;1639;42.804;23.342;2022-11-20T04:09:25;71853.53;;;-148.52;63.50
3254;BME280;1639;42.804;23.342;2022-11-20T04:11:50;71857.69;;;-148.52;64.45
3254;BME280;1639;42.804;23.342;2022-11-20T04:14:16;71851.47;;;-148.52;64.41
3254;BME280;1639;42.804;23.342;2022-11-20T04:16:42;71841.13;;;-148.52;63.45
3254;BME280;1639;42.804;23.342;2022-11-20T04:19:13;71834.94;;;-148.52;62.88
3254;BME280;1639;42.804;23.342;2022-11-20T04:21:39;71820.47;;;-148.52;63.46
3254;BME280;1639;42.804;23.342;2022-11-20T04:24:05;71826.66;;;-148.52;63.88
3254;BME280;1639;42.804;23.342;2022-11-20T04:26:31;71834.94;;;-148.52;64.05
3254;BME280;1639;42.804;23.342;2022-11-20T04:28:58;71837.00;;;-148.52;63.73
3254;BME280;1639;42.804;23.342;2022-11-20T04:31:26;71826.66;;;-148.52;63.24
3254;BME280;1639;42.804;23.342;2022-11-20T04:33:52;71834.94;;;-148.52;62.03
3254;BME280;1639;42.804;23.342;2022-11-20T04:36:20;71828.72;;;-148.52;62.24
3254;BME280;1639;42.804;23.342;2022-11-20T04:38:46;71828.72;;;-148.52;61.23
3254;BME280;1639;42.804;23.342;2022-11-20T04:41:16;71814.25;;;-148.52;60.20
3254;BME280;1639;42.804;23.342;2022-11-20T04:43:46;71774.97;;;-148.52;58.85
3254;BME280;1639;42.804;23.342;2022-11-20T04:46:13;71797.72;;;-148.52;59.95
3254;BME280;1639;42.804;23.342;2022-11-20T04:48:39;71797.72;;;-148.52;59.43
3254;BME280;1639;42.804;23.342;2022-11-20T04:51:04;71797.72;;;-148.52;59.29
3254;BME280;1639;42.804;23.342;2022-11-20T04:53:30;71812.19;;;-148.52;59.61
3254;BME280;1639;42.804;23.342;2022-11-20T04:56:04;71799.78;;;-148.52;60.09
3254;BME280;1639;42.804;23.342;2022-11-20T04:58:30;71803.91;;;-148.52;59.35
3254;BME280;1639;42.804;23.342;2022-11-20T05:01:07;71789.44;;;-148.52;58.90
3254;BME280;1639;42.804;23.342;2022-11-20T05:03:32;71799.78;;;-148.52;59.04
3254;BME280;1639;42.804;23.342;2022-11-20T05:06:02;71810.13;;;-148.52;59.46
3254;BME280;1639;42.804;23.342;2022-11-20T05:08:29;71818.38;;;-148.52;60.07
3254;BME280;1639;42.804;23.342;2022-11-20T05:11:00;71808.06;;;-148.52;59.97
3254;BME280;1639;42.804;23.342;2022-11-20T05:13:26;71799.78;;;-148.52;59.67
3254;BME280;1639;42.804;23.342;2022-11-20T05:15:52;71789.44;;;-148.52;60.11
3254;BME280;1639;42.804;23.342;2022-11-20T05:18:17;71801.84;;;-148.52;59.82
3254;BME280;1639;42.804;23.342;2022-11-20T05:20:42;71793.59;;;-148.52;60.27
3254;BME280;1639;42.804;23.342;2022-11-20T05:23:08;71801.84;;;-148.52;61.02
3254;BME280;1639;42.804;23.342;2022-11-20T05:25:33;71812.19;;;-148.52;61.12
3254;BME280;1639;42.804;23.342;2022-11-20T05:27:58;71818.38;;;-148.52;61.10
3254;BME280;1639;42.804;23.342;2022-11-20T05:30:24;71843.19;;;-148.52;61.14
3254;BME280;1639;42.804;23.342;2022-11-20T05:32:49;71820.47;;;-148.52;61.22
3254;BME280;1639;42.804;23.342;2022-11-20T05:35:15;71830.81;;;-148.52;60.49
3254;BME280;1639;42.804;23.342;2022-11-20T05:37:40;71820.47;;;-148.52;60.62
3254;BME280;1639;42.804;23.342;2022-11-20T05:40:06;71812.19;;;-148.52;60.03
3254;BME280;1639;42.804;23.342;2022-11-20T05:42:32;71812.19;;;-148.52;60.30
3254;BME280;1639;42.804;23.342;2022-11-20T05:45:01;71820.47;;;-148.52;61.08
3254;BME280;1639;42.804;23.342;2022-11-20T05:47:30;71787.38;;;-148.52;61.38
3254;BME280;1639;42.804;23.342;2022-11-20T05:49:56;71830.81;;;-148.52;62.20
3254;BME280;1639;42.804;23.342;2022-11-20T05:52:22;71845.28;;;-148.52;62.60
3254;BME280;1639;42.804;23.342;2022-11-20T05:54:47;71857.69;;;-148.52;62.88
3254;BME280;1639;42.804;23.342;2022-11-20T05:57:12;71880.41;;;-148.52;63.49
3254;BME280;1639;42.804;23.342;2022-11-20T05:59:38;71888.69;;;-148.52;64.51
3254;BME280;1639;42.804;23.342;2022-11-20T06:02:03;71894.91;;;-148.52;65.27
3254;BME280;1639;42.804;23.342;2022-11-20T06:04:29;71861.81;;;-148.52;60.62
3254;BME280;1639;42.804;23.342;2022-11-20T06:06:54;71822.53;;;-148.52;60.28
3254;BME280;1639;42.804;23.342;2022-11-20T06:09:19;71822.53;;;-148.52;61.48
3254;BME280;1639;42.804;23.342;2022-11-20T06:11:45;71828.72;;;-148.52;61.35
3254;BME280;1639;42.804;23.342;2022-11-20T06:14:10;71837.00;;;-148.52;61.62
3254;BME280;1639;42.804;23.342;2022-11-20T06:16:36;71843.19;;;-148.52;62.44
3254;BME280;1639;42.804;23.342;2022-11-20T06:19:01;71826.66;;;-148.52;58.30
3254;BME280;1639;42.804;23.342;2022-11-20T06:21:27;71820.47;;;-148.52;57.70
3254;BME280;1639;42.804;23.342;2022-11-20T06:23:52;71814.25;;;-148.52;60.25
3254;BME280;1639;42.804;23.342;2022-11-20T06:26:21;71812.19;;;-148.52;61.44
3254;BME280;1639;42.804;23.342;2022-11-20T06:28:47;71814.25;;;-148.52;61.78
3254;BME280;1639;42.804;23.342;2022-11-20T06:31:15;71818.38;;;-148.52;62.07
3254;BME280;1639;42.804;23.342;2022-11-20T06:33:42;71824.59;;;-148.52;61.99
3254;BME280;1639;42.804;23.342;2022-11-20T06:36:09;71826.66;;;-148.52;63.34
3254;BME280;1639;42.804;23.342;2022-11-20T06:38:35;71806.00;;;-148.52;61.18
3254;BME280;1639;42.804;23.342;2022-11-20T06:41:00;71810.13;;;-148.52;61.69
3254;BME280;1639;42.804;23.342;2022-11-20T06:43:26;71822.53;;;-148.52;61.67
3254;BME280;1639;42.804;23.342;2022-11-20T06:45:53;71824.59;;;-148.52;62.48
3254;BME280;1639;42.804;23.342;2022-11-20T06:48:19;71826.66;;;-148.52;64.79
3254;BME280;1639;42.804;23.342;2022-11-20T06:50:45;71834.94;;;-148.52;65.06
3254;BME280;1639;42.804;23.342;2022-11-20T06:53:11;71855.59;;;-148.52;64.96
3254;BME280;1639;42.804;23.342;2022-11-20T06:55:36;71861.81;;;-148.52;66.16
3254;BME280;1639;42.804;23.342;2022-11-20T06:58:01;71863.88;;;-148.52;66.88
3254;BME280;1639;42.804;23.342;2022-11-20T07:00:27;71874.22;;;-148.52;67.56
3254;BME280;1639;42.804;23.342;2022-11-20T07:02:52;71868.00;;;-148.52;65.98
3254;BME280;1639;42.804;23.342;2022-11-20T07:05:18;71876.28;;;-148.52;67.54
3254;BME280;1639;42.804;23.342;2022-11-20T07:07:43;71872.16;;;-148.52;68.15
3254;BME280;1639;42.804;23.342;2022-11-20T07:10:09;71878.34;;;-148.52;67.63
3254;BME280;1639;42.804;23.342;2022-11-20T07:12:35;71884.56;;;-148.52;68.42
3254;BME280;1639;42.804;23.342;2022-11-20T07:15:00;71884.56;;;-148.52;68.53
3254;BME280;1639;42.804;23.342;2022-11-20T07:17:26;71888.69;;;-148.52;67.80
3254;BME280;1639;42.804;23.342;2022-11-20T07:19:51;71905.22;;;-148.52;69.00
3254;BME280;1639;42.804;23.342;2022-11-20T07:22:17;71917.63;;;-148.52;70.30
3254;BME280;1639;42.804;23.342;2022-11-20T07:24:42;71930.03;;;-148.52;70.16
3254;BME280;1639;42.804;23.342;2022-11-20T07:27:07;71934.19;;;-148.52;70.15
3254;BME280;1639;42.804;23.342;2022-11-20T07:29:33;71921.78;;;-148.52;70.19
3254;BME280;1639;42.804;23.342;2022-11-20T07:31:58;71930.03;;;-148.52;70.92
3254;BME280;1639;42.804;23.342;2022-11-20T07:34:24;71934.19;;;-148.52;71.36
3254;BME280;1639;42.804;23.342;2022-11-20T07:36:49;71936.25;;;-148.52;71.93
3254;BME280;1639;42.804;23.342;2022-11-20T07:39:15;71934.19;;;-148.52;72.24
3254;BME280;1639;42.804;23.342;2022-11-20T07:41:40;71936.25;;;-148.52;72.29
3254;BME280;1639;42.804;23.342;2022-11-20T07:44:06;71946.59;;;-148.52;72.38
3254;BME280;1639;42.804;23.342;2022-11-20T07:46:31;71948.66;;;-148.52;72.02
3254;BME280;1639;42.804;23.342;2022-11-20T07:48:57;71938.31;;;-148.52;71.85
3254;BME280;1639;42.804;23.342;2022-11-20T07:51:22;71938.31;;;-148.52;72.11
3254;BME280;1639;42.804;23.342;2022-11-20T07:53:51;71930.03;;;-148.52;71.66
3254;BME280;1639;42.804;23.342;2022-11-20T07:56:16;71934.19;;;-148.52;71.27
3254;BME280;1639;42.804;23.342;2022-11-20T07:58:41;71942.44;;;-148.52;71.68
3254;BME280;1639;42.804;23.342;2022-11-20T08:01:07;71942.44;;;-148.52;71.22
3254;BME280;1639;42.804;23.342;2022-11-20T08:03:33;71934.19;;;-148.52;71.43
3254;BME280;1639;42.804;23.342;2022-11-20T08:05:59;71942.44;;;-148.52;71.30
3254;BME280;1639;42.804;23.342;2022-11-20T08:08:28;71932.13;;;-148.52;71.52
3254;BME280;1639;42.804;23.342;2022-11-20T08:10:54;71934.19;;;-148.52;71.04
3254;BME280;1639;42.804;23.342;2022-11-20T08:13:39;71934.19;;;-148.52;70.78
3254;BME280;1639;42.804;23.342;2022-11-20T08:16:23;71938.31;;;-148.52;71.51
3254;BME280;1639;42.804;23.342;2022-11-20T08:18:48;71942.44;;;-148.52;71.93
3254;BME280;1639;42.804;23.342;2022-11-20T08:21:15;71936.25;;;-148.52;70.84
3254;BME280;1639;42.804;23.342;2022-11-20T08:23:41;71930.03;;;-148.52;68.44
3254;BME280;1639;42.804;23.342;2022-11-20T08:26:06;71932.13;;;-148.52;68.02
3254;BME280;1639;42.804;23.342;2022-11-20T08:28:32;71927.97;;;-148.52;68.19
3254;BME280;1639;42.804;23.342;2022-11-20T08:30:59;71921.78;;;-148.52;69.19
3254;BME280;1639;42.804;23.342;2022-11-20T08:33:24;71927.97;;;-148.52;70.79
3254;BME280;1639;42.804;23.342;2022-11-20T08:35:50;71942.44;;;-148.52;70.65
3254;BME280;1639;42.804;23.342;2022-11-20T08:38:15;71950.72;;;-148.52;70.47
3254;BME280;1639;42.804;23.342;2022-11-20T08:40:41;71942.44;;;-148.52;69.67
3254;BME280;1639;42.804;23.342;2022-11-20T08:43:26;71946.59;;;-148.52;67.33
3254;BME280;1639;42.804;23.342;2022-11-20T08:45:51;71944.53;;;-148.52;70.31
3254;BME280;1639;42.804;23.342;2022-11-20T08:48:17;71954.84;;;-148.52;71.33
3254;BME280;1639;42.804;23.342;2022-11-20T08:50:42;71952.78;;;-148.52;72.85
3254;BME280;1639;42.804;23.342;2022-11-20T08:53:07;71979.66;;;-148.52;74.71
3254;BME280;1639;42.804;23.342;2022-11-20T08:55:33;71979.66;;;-148.52;73.57
3254;BME280;1639;42.804;23.342;2022-11-20T08:58:06;72012.75;;;-148.52;75.38
3254;BME280;1639;42.804;23.342;2022-11-20T09:00:32;72014.81;;;-148.52;74.98
3254;BME280;1639;42.804;23.342;2022-11-20T09:02:58;72025.16;;;-148.52;75.41
3254;BME280;1639;42.804;23.342;2022-11-20T09:05:24;72033.44;;;-148.52;78.62
3254;BME280;1639;42.804;23.342;2022-11-20T09:07:49;72041.69;;;-148.52;77.84
3254;BME280;1639;42.804;23.342;2022-11-20T09:10:15;72058.25;;;-148.52;79.14
3254;BME280;1639;42.804;23.342;2022-11-20T09:12:40;72068.59;;;-148.52;80.59
3254;BME280;1639;42.804;23.342;2022-11-20T09:15:06;72078.91;;;-148.52;82.07
3254;BME280;1639;42.804;23.342;2022-11-20T09:17:31;72070.66;;;-148.52;83.69
3254;BME280;1639;42.804;23.342;2022-11-20T09:19:57;72072.72;;;-148.52;83.53
3254;BME280;1639;42.804;23.342;2022-11-20T09:22:22;72062.38;;;-148.52;84.78
3254;BME280;1639;42.804;23.342;2022-11-20T09:24:47;72058.25;;;-148.52;85.37
3254;BME280;1639;42.804;23.342;2022-11-20T09:27:13;72049.97;;;-148.52;85.08
3254;BME280;1639;42.804;23.342;2022-11-20T09:29:38;72052.03;;;-148.52;85.60
3254;BME280;1639;42.804;23.342;2022-11-20T09:32:04;72052.03;;;-148.52;87.02
3254;BME280;1639;42.804;23.342;2022-11-20T09:34:29;72045.84;;;-148.52;88.75
3254;BME280;1639;42.804;23.342;2022-11-20T09:36:54;72060.31;;;-148.52;91.25
3254;BME280;1639;42.804;23.342;2022-11-20T09:39:20;72037.56;;;-148.52;90.51
3254;BME280;1639;42.804;23.342;2022-11-20T09:50:34;72021.03;;;-148.52;91.09
3254;BME280;1639;42.804;23.342;2022-11-20T09:53:28;72037.56;;;-148.52;92.54
3254;BME280;1639;42.804;23.342;2022-11-20T09:55:56;72027.22;;;-148.52;90.02
3254;BME280;1639;42.804;23.342;2022-11-20T09:58:27;72010.69;;;-148.52;90.28
3254;BME280;1639;42.804;23.342;2022-11-20T10:00:56;72000.34;;;-148.52;86.46
3254;BME280;1639;42.804;23.342;2022-11-20T10:04:11;72002.41;;;-148.52;87.80
3254;BME280;1639;42.804;23.342;2022-11-20T10:07:24;71994.13;;;-148.52;88.31
3254;BME280;1639;42.804;23.342;2022-11-20T10:09:54;71985.88;;;-148.52;86.94
3254;BME280;1639;42.804;23.342;2022-11-20T10:29:13;72045.84;;;-148.52;100.00
3254;BME280;1639;42.804;23.342;2022-11-20T10:31:43;72035.50;;;-148.52;100.00
3254;BME280;1639;42.804;23.342;2022-11-20T10:34:20;72037.56;;;-148.52;100.00
3254;BME280;1639;42.804;23.342;2022-11-20T10:36:52;72031.38;;;-148.52;100.00
3254;BME280;1639;42.804;23.342;2022-11-20T10:39:29;72033.44;;;-148.52;100.00
3254;BME280;1639;42.804;23.342;2022-11-20T10:41:59;72010.69;;;-148.52;92.99
3254;BME280;1639;42.804;23.342;2022-11-20T10:44:29;72000.34;;;-148.52;93.21
3254;BME280;1639;42.804;23.342;2022-11-20T10:47:18;72004.47;;;-148.52;96.20
3254;BME280;1639;42.804;23.342;2022-11-20T10:49:50;72016.88;;;-148.52;100.00
3254;BME280;1639;42.804;23.342;2022-11-20T10:58:04;72047.91;;;-148.52;100.00
3254;BME280;1639;42.804;23.342;2022-11-20T11:00:35;72060.31;;;-148.52;100.00
3254;BME280;1639;42.804;23.342;2022-11-20T11:03:00;72078.91;;;-148.52;100.00
3254;BME280;1639;42.804;23.342;2022-11-20T11:05:39;72103.72;;;-148.52;100.00
3254;BME280;1639;42.804;23.342;2022-11-20T11:08:15;72149.22;;;-148.52;100.00
3254;BME280;1639;42.804;23.342;2022-11-20T11:10:53;72180.25;;;-148.52;100.00
3254;BME280;1639;42.804;23.342;2022-11-20T11:13:22;72184.38;;;-148.52;100.00
3254;BME280;1639;42.804;23.342;2022-11-20T11:15:48;72236.06;;;-148.52;100.00
3254;BME280;1639;42.804;23.342;2022-11-20T11:18:30;72236.06;;;-148.52;100.00
3254;BME280;1639;42.804;23.342;2022-11-20T11:20:57;72262.94;;;-148.52;100.00
3254;BME280;1639;42.804;23.342;2022-11-20T11:23:34;72287.75;;;-148.52;100.00
3254;BME280;1639;42.804;23.342;2022-11-20T11:26:03;72293.97;;;-148.52;100.00
3254;BME280;1639;42.804;23.342;2022-11-20T11:28:30;72314.66;;;-148.52;100.00
3254;BME280;1639;42.804;23.342;2022-11-20T11:30:55;72318.78;;;-148.52;100.00
3254;BME280;1639;42.804;23.342;2022-11-20T11:35:50;72327.06;;;-148.52;100.00
3254;BME280;1639;42.804;23.342;2022-11-20T11:38:28;72331.19;;;-148.52;100.00
3254;BME280;1639;42.804;23.342;2022-11-20T11:40:56;72327.06;;;-148.52;100.00
3254;BME280;1639;42.804;23.342;2022-11-20T11:43:27;72329.13;;;-148.52;100.00
3254;BME280;1639;42.804;23.342;2022-11-20T11:46:34;72329.13;;;-148.52;100.00
3254;BME280;1639;42.804;23.342;2022-11-20T11:54:28;72327.06;;;-148.52;100.00
3254;BME280;1639;42.804;23.342;2022-11-20T11:57:00;72345.66;;;-148.52;100.00
3254;BME280;1639;42.804;23.342;2022-11-20T11:59:39;72356.00;;;-148.52;100.00
3254;BME280;1639;42.804;23.342;2022-11-20T12:02:22;72370.47;;;-148.52;100.00
3254;BME280;1639;42.804;23.342;2022-11-20T12:04:57;72393.22;;;-148.52;100.00
3254;BME280;1639;42.804;23.342;2022-11-20T12:07:38;72411.84;;;-148.52;100.00
3254;BME280;1639;42.804;23.342;2022-11-20T12:10:08;72418.03;;;-148.52;100.00
3254;BME280;1639;42.804;23.342;2022-11-20T12:12:42;72413.91;;;-148.52;100.00
3254;BME280;1639;42.804;23.342;2022-11-20T12:15:20;72453.19;;;-148.52;100.00
3254;BME280;1639;42.804;23.342;2022-11-20T12:17:48;72473.88;;;-148.52;100.00
3254;BME280;1639;42.804;23.342;2022-11-20T12:20:14;72478.00;;;-148.52;100.00
3254;BME280;1639;42.804;23.342;2022-11-20T12:23:06;72467.66;;;-148.52;100.00
3254;BME280;1639;42.804;23.342;2022-11-20T12:25:36;72465.59;;;-148.52;100.00
3254;BME280;1639;42.804;23.342;2022-11-20T12:28:08;72463.53;;;-148.52;100.00
3254;BME280;1639;42.804;23.342;2022-11-20T12:30:45;72447.00;;;-148.52;100.00
3254;BME280;1639;42.804;23.342;2022-11-20T12:36:24;72426.31;;;-148.52;100.00
3254;BME280;1639;42.804;23.342;2022-11-20T12:41:31;72397.38;;;-148.52;100.00
3254;BME280;1639;42.804;23.342;2022-11-20T13:01:12;72403.56;;;-148.52;100.00
3254;BME280;1639;42.804;23.342;2022-11-20T13:07:05;72382.88;;;-148.52;100.00
3254;BME280;1639;42.804;23.342;2022-11-20T13:09:32;72380.81;;;-148.52;100.00
3254;BME280;1639;42.804;23.342;2022-11-20T13:12:10;72364.28;;;-148.52;100.00
3254;BME280;1639;42.804;23.342;2022-11-20T13:14:52;72349.81;;;-148.52;100.00
3254;BME280;1639;42.804;23.342;2022-11-20T13:17:40;72333.25;;;-148.52;100.00
3254;BME280;1639;42.804;23.342;2022-11-20T13:20:17;72318.78;;;-148.52;100.00
3254;BME280;1639;42.804;23.342;2022-11-20T13:22:51;72331.19;;;-148.52;100.00
3254;BME280;1639;42.804;23.342;2022-11-20T13:25:31;72351.88;;;-148.52;100.00
3254;BME280;1639;42.804;23.342;2022-11-20T13:30:53;72393.22;;;-148.52;100.00
3254;BME280;1639;42.804;23.342;2022-11-20T13:33:36;72391.16;;;-148.52;100.00
3254;BME280;1639;42.804;23.342;2022-11-20T13:36:20;72387.03;;;-148.52;100.00
3254;BME280;1639;42.804;23.342;2022-11-20T13:38:51;72387.03;;;-148.52;100.00
3254;BME280;1639;42.804;23.342;2022-11-20T13:41:26;72395.28;;;-148.52;100.00
3254;BME280;1639;42.804;23.342;2022-11-20T13:43:54;72399.44;;;-148.52;100.00
3254;BME280;1639;42.804;23.342;2022-11-20T13:46:22;72409.78;;;-148.52;100.00
3254;BME280;1639;42.804;23.342;2022-11-20T13:48:50;72415.97;;;-148.52;100.00
3254;BME280;1639;42.804;23.342;2022-11-20T13:54:11;72422.19;;;-148.52;100.00
3254;BME280;1639;42.804;23.342;2022-11-20T14:02:16;72364.28;;;-148.52;100.00
3254;BME280;1639;42.804;23.342;2022-11-20T14:04:49;72351.88;;;-148.52;100.00
3254;BME280;1639;42.804;23.342;2022-11-20T14:07:18;72356.00;;;-148.52;100.00
3254;BME280;1639;42.804;23.342;2022-11-20T14:09:54;72347.72;;;-148.52;100.00
3254;BME280;1639;42.804;23.342;2022-11-20T14:12:30;72341.53;;;-148.52;100.00
3254;BME280;1639;42.804;23.342;2022-11-20T14:14:56;72343.59;;;-148.52;100.00